Schladming, Austria
Current Conditions -  °F | °C
As of 11:50 AM on Friday 19 Dec 2014 (Local Time) from LOWS Reporting Station
Scattered Clouds Scattered Clouds  
Wind Chill: 50°   Ceiling: Unl
Heat Index: 50°   Visibility: 6mi
Dew Point: 46°   Wind: 9mph
Humidity: 87%   Direction: 160°SSE
Pressure: 30.12"   Gusts: NA
Location:  47.4°N, 13.7°E
Report Text: LOWS 190950Z 16008KT 9999 FEW015 SCT300 10/08 Q1020 NOSIG
Loading
Personal Weather Stations






























Interactive Weather Map New forecast layout! Learn more

10-Day Weather Forecast

Advertisements
Track Severe Weather on mobile